• Join FlightAware (Why Join?)
  • Login
  • US Flag 
07:47PM EDT


 

Airport Tracker/Info


-or-


 

Live Flight TrackerFlight Track Log ✈ SWA1728 ✈ 01-May-2013 ✈ KOMA - KDEN

Flight Track Log - Related Links

Times and Time Zones

All times are in EDT time to prevent confusion due to time zone crossing. See the SWA1728 flight status page for this flight to view local times or setup timezone preferences in your user account.

Time Position Orientation Groundspeed Altitude Reporting Facility
EDT Latitude Longitude Course Direction KTS MPH feet Rate Location/Type
03:57PM 41.3131 -95.9119 278° West 149 171 1,900  Level Minneapolis Center
03:58PM 41.3522 -95.9656 314° West 209 241 4,600 2,400 Climbing Minneapolis Center
03:59PM 41.3781 -95.9892 326° Northwest 194 223 6,100 2,220 Climbing Minneapolis Center
04:00PM 41.4119 -96.0847 295° West 249 287 8,600 3,000 Climbing Minneapolis Center
04:01PM 41.4122 -96.1842 270° West 272 313 12,400 2,460 Climbing Minneapolis Center
04:02PM 41.4097 -96.2911 268° West 288 331 13,700 2,040 Climbing Minneapolis Center
04:03PM 41.3182 -96.6482 278° West  Level FlightAware Approximate
04:03PM 41.4100 -96.4139 270° West 328 377 16,600  Level Minneapolis Center
04:04PM 41.4083 -96.5397 269° West 336 387 18,600 2,160 Climbing Minneapolis Center
04:05PM 41.4086 -96.6931 270° West 343 395 21,100 2,040 Climbing Minneapolis Center
04:06PM 41.4025 -96.8222 266° West 349 402 22,900 1,260 Climbing Minneapolis Center
04:07PM 41.3800 -96.9567 257° West 365 420 23,800 1,080 Climbing Minneapolis Center
04:08PM 41.3572 -97.1003 258° West 389 448 25,200 1,500 Climbing Minneapolis Center
04:09PM 41.3272 -97.2442 255° West 400 460 27,000 1,620 Climbing Minneapolis Center
04:10PM 41.3017 -97.3869 257° West 400 460 29,000 1,680 Climbing Minneapolis Center
04:12PM 41.2590 -97.5201 247° West  Level FlightAware Approximate
04:12PM 41.2667 -97.7147 247° West 396 456 32,600  Level Minneapolis Center
04:13PM 41.2442 -97.8500 258° West 382 440 34,400 1,560 Climbing Minneapolis Center
04:15PM 41.2208 -98.0083 259° West 367 422 35,900 720 Climbing Minneapolis Center
04:16PM 41.2006 -98.1406 259° West 365 420 36,000  Climbing Minneapolis Center
04:17PM 41.1808 -98.2736 259° West 366 421 36,000  Level Minneapolis Center
04:18PM 41.1600 -98.4064 258° West 367 422 36,000  Level Minneapolis Center
04:19PM 41.1414 -98.5269 258° West 364 419 36,000  Level Minneapolis Center
04:20PM 41.1169 -98.6828 258° West 361 415 36,000  Level Minneapolis Center
04:21PM 41.0950 -98.8133 257° West 362 417 36,000  Level Minneapolis Center
04:22PM 41.0747 -98.9433 258° West 362 417 36,000  Level Minneapolis Center
04:23PM 41.0550 -99.0703 258° West 356 410 36,000  Level Minneapolis Center
04:24PM 41.0353 -99.1953 258° West 353 406 36,000  Level Minneapolis Center
04:24PM 41.0267 -99.2461 257° West 353 406 36,000  Level Denver Center
04:25PM 41.0056 -99.3731 258° West 353 406 36,000  Level Denver Center
04:26PM 40.9889 -99.4742 258° West 352 405 36,000  Level Denver Center
04:27PM 40.9639 -99.6253 258° West 351 404 36,000  Level Denver Center
04:28PM 40.9425 -99.7519 257° West 353 406 36,000  Level Denver Center
04:29PM 40.9194 -99.8894 258° West 353 406 36,000  Level Denver Center
04:30PM 40.8958 -100.0311 258° West 353 406 36,000  Level Denver Center
04:31PM 40.8758 -100.1528 258° West 353 406 36,000  Level Denver Center
04:32PM 40.8522 -100.2931 257° West 352 405 36,000  Level Denver Center
04:33PM 40.8322 -100.4147 258° West 352 405 36,000  Level Denver Center
04:34PM 40.8092 -100.5528 258° West 346 398 36,000  Level Denver Center
04:35PM 40.7867 -100.6708 256° West 346 398 36,000  Level Denver Center
04:36PM 40.7667 -100.7967 258° West 347 399 36,000  Level Denver Center
04:38PM 40.7436 -100.9333 257° West 340 391 36,000  Level Denver Center
04:39PM 40.7239 -101.0506 258° West 341 392 36,000  Level Denver Center
04:41PM 40.6769 -101.3197 257° West 337 388 36,000  Level Denver Center
04:42PM 40.6539 -101.4542 257° West 337 388 36,000  Level Denver Center
04:43PM 40.6294 -101.5872 256° West 335 386 36,000  Level Denver Center
04:44PM 40.6061 -101.7214 257° West 337 388 36,000  Level Denver Center
04:45PM 40.5844 -101.8372 256° West 340 391 36,000  Level Denver Center
04:46PM 40.5597 -101.9722 256° West 341 392 36,000  Level Denver Center
04:47PM 40.5372 -102.0892 256° West 344 396 36,000  Level Denver Center
04:48PM 40.5167 -102.2069 257° West 346 398 36,000  Level Denver Center
04:49PM 40.4903 -102.3456 256° West 350 403 36,000  Level Denver Center
04:50PM 40.4689 -102.4653 257° West 352 405 36,000  Level Denver Center
04:51PM 40.4428 -102.6053 256° West 353 406 36,000  Level Denver Center
04:52PM 40.4225 -102.7069 255° West 354 407 36,000  Level Denver Center
04:53PM 40.3947 -102.8553 256° West 357 411 36,000  Level Denver Center
04:54PM 40.3700 -102.9836 256° West 359 413 36,000  Level Denver Center
04:55PM 40.3461 -103.1111 256° West 358 412 36,000 -840 Level Denver Center
04:56PM 40.3167 -103.2625 256° West 364 419 34,300 -2,640 Descending Denver Center
04:57PM 40.2911 -103.3936 256° West 369 425 30,600 -3,000 Descending Denver Center
04:59PM 40.2650 -103.5267 256° West 374 430 27,600 -2,700 Descending Denver Center
05:00PM 40.2361 -103.6717 255° West 352 405 24,500 -2,760 Descending Denver Center
05:01PM 40.2122 -103.8036 257° West 339 390 22,000 -1,260 Descending Denver Center
05:02PM 40.1786 -103.8994 245° Southwest 286 329 22,000 -780 Level Denver Center
05:03PM 40.1467 -103.9700 239° Southwest 268 308 20,500 -1,680 Descending Denver Center
05:04PM 40.0994 -104.0692 238° Southwest 261 300 18,600 -1,620 Descending Denver Center
05:05PM 40.0647 -104.1458 239° Southwest 248 285 17,200 -840 Descending Denver Center
05:06PM 40.0222 -104.2369 239° Southwest 271 312 17,000 -840 Descending Denver Center
05:07PM 39.9819 -104.3244 239° Southwest 280 322 15,500 -1,620 Descending Denver Center
05:08PM 39.9397 -104.4144 239° Southwest 290 334 13,700 -1,920 Descending Denver Center
05:09PM 39.8811 -104.5019 229° Southwest 307 353 11,600 -1,380 Descending Denver Center
05:10PM 39.8000 -104.5000 179° South 278 320 11,000 -660 Descending Denver TRACON
05:11PM 39.7333 -104.5000 180° South 237 273 10,300 -900 Descending Denver TRACON
05:12PM 39.6667 -104.5000 180° South 228 262 9,200 -660 Descending Denver TRACON
05:13PM 39.5981 -104.5039 183° South 239 275 9,000 -120 Descending Denver Center
05:14PM 39.5422 -104.5356 204° Southwest 236 272 9,000  Level Denver Center
05:15PM 39.5489 -104.6172 276° West 224 258 9,000 -420 Level Denver Center
05:16PM 39.5933 -104.6558 326° Northwest 191 220 8,200 -540 Descending Denver Center
05:17PM 39.6403 -104.6631 353° North 168 193 8,000 -540 Descending Denver Center
05:18PM 39.6900 -104.6622 North 164 189 7,100 -540 Descending Denver Center
05:19PM 39.7283 -104.6619 360° North 141 162 7,000 -180 Descending Denver Center
05:20PM 39.7669 -104.6614 North 139 160 6,800 -540 Descending Denver Center
05:21PM 39.8067 -104.6608 North 134 154 5,900 -720 Descending Denver Center
05:22PM 39.8428 -104.6625 358° North 129 148 5,400 -540 Descending Denver Center
05:24PM 39.8500 -104.6667 339° North  Level FlightAware Approximate
05:31PM 39.8617 -104.6732 339° North  Level Estimated
05:32PM 39.8617 -104.6732 339° North  Level Estimated
05:33PM 39.8617 -104.6732 339° North  Level Estimated